»·PEaware :: N35246 KOTH-KRDM

N35246 :: KOTH-KRDM

FLIGHT INFORMATION

Flight Status: Arrived
Operator: Privately registered:
United States
More flights under this callsign
Pilot: Jonathan R. (15593)
Aircraft: PIPER PA-24 COMMANCHE
(PA24)
More flights by this aircraft type
Origin: KOTH North Bend Mun
United States
Destination: KRDM Roberts
United States
More flights between these airports :: More routes between these airports
Route: +OTH6 SCOTY EUG V121 SNOKY
File this flight plan on PilotEdge
Remarks:
Altitude:
(Current/Filed)
9,000ft
Speed:
(Current/Filed)
120kts
Departed: 20-Feb-18 05:23 PM
Arrived: 20-Feb-18 07:06 PM
Distance/Time
Traveled:
143nm/1:42
Distance/Time
To Go:
Arrived

Flight Plot

Page will automatically refresh every two minutes.

Flight plan parsing failed; only flown route is shown


Map Options




Map Legend


Flown Route
Filed Route
Departure Airport
Arrival Airport
Navaid (VOR, NDB)
Fix

Horizontal Profiles

Position Reports

Time Latitude Longitude Heading Altitude Ground
Speed
20-Feb-18 17:07 43.416300 -124.247406 241 11ft 0kts
20-Feb-18 17:08 43.416298 -124.247411 241 11ft 0kts
20-Feb-18 17:09 43.416297 -124.247414 241 11ft 0kts
20-Feb-18 17:10 43.416295 -124.247418 241 11ft 0kts
20-Feb-18 17:11 43.416294 -124.247421 241 11ft 0kts
20-Feb-18 17:12 43.416292 -124.247425 241 11ft 0kts
20-Feb-18 17:13 43.416289 -124.247432 241 11ft 0kts
20-Feb-18 17:14 43.416337 -124.247314 241 11ft 0kts
20-Feb-18 17:15 43.416334 -124.247320 241 11ft 0kts
20-Feb-18 17:16 43.416331 -124.247327 241 11ft 0kts
20-Feb-18 17:17 43.416329 -124.247334 241 11ft 0kts
20-Feb-18 17:18 43.416326 -124.247341 241 11ft 0kts
20-Feb-18 17:19 43.416323 -124.247349 241 11ft 0kts
20-Feb-18 17:20 43.416320 -124.247357 241 11ft 0kts
20-Feb-18 17:21 43.416317 -124.247363 241 11ft 0kts
20-Feb-18 17:22 43.416325 -124.247342 241 11ft 1kts
20-Feb-18 17:23 43.416494 -124.247349 1 11ft 6kts
20-Feb-18 17:24 43.418809 -124.246883 331 11ft 10kts
20-Feb-18 17:25 43.419948 -124.242931 60 11ft 14kts
20-Feb-18 17:26 43.422416 -124.240380 354 11ft 0kts
20-Feb-18 17:27 43.422423 -124.240380 354 11ft 0kts
20-Feb-18 17:28 43.422429 -124.240381 354 11ft 0kts
20-Feb-18 17:29 43.422499 -124.240392 352 11ft 7kts
20-Feb-18 17:30 43.414212 -124.264541 246 410ft 120kts
20-Feb-18 17:31 43.408857 -124.308092 260 1019ft 120kts
20-Feb-18 17:32 43.407684 -124.352862 270 2064ft 118kts
20-Feb-18 17:33 43.432933 -124.374396 19 3037ft 132kts
20-Feb-18 17:34 43.436297 -124.335830 123 3534ft 128kts
20-Feb-18 17:35 43.432917 -124.286181 95 4049ft 134kts
20-Feb-18 17:36 43.423114 -124.238383 116 4610ft 130kts
20-Feb-18 17:37 43.417085 -124.187907 100 5126ft 136kts
20-Feb-18 17:38 43.422054 -124.137019 43 5655ft 140kts
20-Feb-18 17:39 43.453729 -124.105792 22 6237ft 140kts
20-Feb-18 17:40 43.488382 -124.081377 42 6737ft 142kts
20-Feb-18 17:41 43.512456 -124.038377 44 7548ft 142kts
20-Feb-18 17:42 43.541267 -124.001179 43 8242ft 143kts
20-Feb-18 17:43 43.568580 -123.964642 39 8788ft 136kts
20-Feb-18 17:44 43.597554 -123.927121 39 8992ft 146kts
20-Feb-18 17:45 43.626342 -123.888054 40 9143ft 144kts
20-Feb-18 17:46 43.655554 -123.850368 41 9140ft 144kts
20-Feb-18 17:47 43.684131 -123.811344 40 9142ft 144kts
20-Feb-18 17:48 43.712982 -123.772808 39 9141ft 144kts
20-Feb-18 17:49 43.741895 -123.734441 42 9140ft 144kts
20-Feb-18 17:50 43.770788 -123.695773 42 9139ft 144kts
20-Feb-18 17:51 43.799767 -123.657552 39 9141ft 144kts
20-Feb-18 17:52 43.828517 -123.618683 40 9140ft 144kts
20-Feb-18 17:53 43.857425 -123.579663 42 9140ft 145kts
20-Feb-18 17:54 43.886343 -123.540889 38 9139ft 144kts
20-Feb-18 17:55 43.915431 -123.502389 40 9139ft 144kts
20-Feb-18 17:56 43.944006 -123.463130 44 9139ft 145kts
20-Feb-18 17:57 43.972875 -123.424064 37 9139ft 143kts
20-Feb-18 17:58 44.001751 -123.385403 41 9139ft 144kts
20-Feb-18 17:59 44.029765 -123.346697 43 9138ft 141kts
20-Feb-18 18:00 44.057874 -123.308725 37 9138ft 140kts
20-Feb-18 18:01 44.085817 -123.270837 40 9140ft 140kts
20-Feb-18 18:02 44.113462 -123.232428 47 9140ft 141kts
20-Feb-18 18:03 44.120826 -123.178305 79 9145ft 143kts
20-Feb-18 18:04 44.125549 -123.122925 83 9143ft 144kts
20-Feb-18 18:05 44.130214 -123.067704 80 9140ft 143kts
20-Feb-18 18:06 44.135259 -123.009855 81 9139ft 154kts
20-Feb-18 18:07 44.139612 -122.950045 85 9143ft 156kts
20-Feb-18 18:08 44.143922 -122.889888 82 9133ft 156kts
20-Feb-18 18:09 44.148466 -122.829663 84 9131ft 156kts
20-Feb-18 18:10 44.152532 -122.769766 85 9125ft 154kts
20-Feb-18 18:11 44.156944 -122.710825 82 9123ft 152kts
20-Feb-18 18:12 44.161104 -122.651923 85 9118ft 152kts
20-Feb-18 18:13 44.164769 -122.593188 85 9115ft 152kts
20-Feb-18 18:14 44.168849 -122.534303 82 9111ft 152kts
20-Feb-18 18:15 44.185581 -122.486236 18 9098ft 145kts
20-Feb-18 18:16 44.223663 -122.465871 17 9080ft 146kts
20-Feb-18 18:17 44.261588 -122.445602 15 9094ft 145kts
20-Feb-18 18:18 44.299376 -122.426023 17 9099ft 145kts
20-Feb-18 18:19 44.337109 -122.405810 17 9101ft 144kts
20-Feb-18 18:20 44.374825 -122.386194 17 9099ft 145kts
20-Feb-18 18:21 44.405056 -122.354660 94 9063ft 151kts
20-Feb-18 18:22 44.374546 -122.320709 157 9085ft 147kts
20-Feb-18 18:23 44.345587 -122.282787 120 9105ft 149kts
20-Feb-18 18:24 44.315136 -122.246741 152 9104ft 145kts
20-Feb-18 18:25 44.285624 -122.207371 117 9090ft 149kts
20-Feb-18 18:26 44.285600 -122.150584 73 9086ft 150kts
20-Feb-18 18:27 44.292992 -122.093819 98 9079ft 150kts
20-Feb-18 18:28 44.279767 -122.038611 110 9075ft 150kts
20-Feb-18 18:29 44.270662 -121.981760 103 9068ft 152kts
20-Feb-18 18:30 44.262551 -121.923523 104 9063ft 153kts
20-Feb-18 18:31 44.255062 -121.865287 100 9058ft 152kts
20-Feb-18 18:32 44.248492 -121.816874 100 9033ft 153kts
20-Feb-18 18:33 44.239888 -121.748770 105 9023ft 152kts
20-Feb-18 18:34 44.233076 -121.700636 104 9019ft 152kts
20-Feb-18 18:35 44.248702 -121.637901 58 9019ft 152kts
20-Feb-18 18:36 44.266600 -121.595418 58 9031ft 152kts
20-Feb-18 18:37 44.289083 -121.545150 41 9014ft 152kts
20-Feb-18 18:38 44.323412 -121.510889 27 9021ft 151kts
20-Feb-18 18:39 44.359774 -121.479953 28 9025ft 154kts
20-Feb-18 18:40 44.396238 -121.448216 29 9024ft 154kts
20-Feb-18 18:41 44.432887 -121.416616 29 9022ft 154kts
20-Feb-18 18:42 44.469214 -121.384501 28 9022ft 154kts
20-Feb-18 18:43 44.505318 -121.353162 27 9017ft 150kts
20-Feb-18 18:44 44.540635 -121.322281 30 9020ft 149kts
20-Feb-18 18:45 44.575555 -121.291373 29 9029ft 148kts
20-Feb-18 18:46 44.608855 -121.261217 29 9032ft 139kts
20-Feb-18 18:47 44.620493 -121.215388 112 9009ft 133kts
20-Feb-18 18:48 44.606008 -121.165206 115 8273ft 139kts
20-Feb-18 18:49 44.593543 -121.115322 115 7552ft 124kts
20-Feb-18 18:50 44.579990 -121.071221 119 7122ft 118kts
20-Feb-18 18:51 44.564003 -121.031930 124 7123ft 115kts
20-Feb-18 18:52 44.546014 -120.994749 132 7123ft 114kts
20-Feb-18 18:53 44.525731 -120.960684 135 7120ft 113kts
20-Feb-18 18:54 44.503604 -120.929231 139 7119ft 113kts
20-Feb-18 18:55 44.479750 -120.900668 147 7109ft 112kts
20-Feb-18 18:56 44.454346 -120.875497 151 7106ft 111kts
20-Feb-18 18:57 44.427669 -120.853718 157 7110ft 110kts
20-Feb-18 18:58 44.400372 -120.834699 165 7148ft 108kts
20-Feb-18 18:59 44.371300 -120.824874 161 7169ft 110kts
20-Feb-18 19:00 44.342914 -120.809178 159 7156ft 109kts
20-Feb-18 19:01 44.314004 -120.799897 180 7136ft 105kts
20-Feb-18 19:02 44.284612 -120.796123 188 7094ft 107kts
20-Feb-18 19:03 44.275505 -120.830288 256 6952ft 104kts
20-Feb-18 19:04 44.269253 -120.868550 265 6413ft 96kts
20-Feb-18 19:05 44.269151 -120.906309 264 5667ft 95kts
20-Feb-18 19:06 44.267196 -120.943380 266 4892ft 93kts
20-Feb-18 19:07 44.266217 -120.975168 271 4702ft 76kts
20-Feb-18 19:08 44.264595 -121.004525 269 4840ft 79kts
20-Feb-18 19:09 44.262574 -121.035758 266 4570ft 81kts
20-Feb-18 19:10 44.261187 -121.067025 270 4007ft 78kts
20-Feb-18 19:11 44.258402 -121.096943 270 3985ft 78kts
20-Feb-18 19:12 44.250346 -121.124009 224 3641ft 80kts
20-Feb-18 19:13 44.251727 -121.145057 303 3080ft 37kts
20-Feb-18 19:14 44.254828 -121.151525 18 3080ft 8kts
20-Feb-18 19:15 44.255168 -121.151131 36 3080ft 0kts
20-Feb-18 19:16 44.255752 -121.151626 301 3080ft 8kts
20-Feb-18 19:17 44.257489 -121.155631 299 3080ft 11kts
20-Feb-18 19:18 44.259592 -121.157202 323 3080ft 8kts
20-Feb-18 19:19 44.259894 -121.158290 210 3080ft 0kts
20-Feb-18 19:20 44.259894 -121.158290 210 3080ft 0kts
20-Feb-18 19:21 44.259894 -121.158290 210 3080ft 0kts

Navigation Log

Ident Type
Flight plan parsing failed, navigation log unavailable